createdAt,value
2018-08-30T00:01:54.418Z,16.90
2018-08-30T00:04:29.027Z,16.90
2018-08-30T00:07:03.733Z,16.70
2018-08-30T00:09:38.369Z,16.70
2018-08-30T00:12:13.122Z,16.70
2018-08-30T00:14:47.708Z,16.70
2018-08-30T00:17:22.599Z,16.70
2018-08-30T00:19:57.153Z,16.70
2018-08-30T00:22:31.730Z,16.70
2018-08-30T00:25:06.441Z,16.70
2018-08-30T00:27:41.070Z,16.70
2018-08-30T00:30:15.830Z,16.80
2018-08-30T00:32:50.369Z,16.80
2018-08-30T00:35:24.935Z,16.80
2018-08-30T00:37:59.498Z,16.80
2018-08-30T00:40:34.029Z,16.90
2018-08-30T00:43:08.675Z,16.90
2018-08-30T00:45:43.263Z,16.90
2018-08-30T00:48:17.846Z,16.90
2018-08-30T00:50:52.531Z,16.90
2018-08-30T00:53:27.069Z,16.90
2018-08-30T00:56:01.606Z,16.80
2018-08-30T00:58:36.133Z,16.90
2018-08-30T01:01:10.877Z,16.90
2018-08-30T01:03:45.526Z,16.90
2018-08-30T01:06:20.342Z,17.00
2018-08-30T01:08:54.914Z,17.00
2018-08-30T01:11:29.573Z,16.90
2018-08-30T01:14:04.249Z,17.10
2018-08-30T01:16:38.814Z,17.10
2018-08-30T01:19:13.715Z,17.10
2018-08-30T01:21:48.343Z,17.10
2018-08-30T01:24:23.451Z,17.00
2018-08-30T01:26:58.114Z,17.00
2018-08-30T01:29:32.790Z,17.10
2018-08-30T01:32:07.504Z,16.90
2018-08-30T01:34:42.156Z,16.90
2018-08-30T01:37:16.807Z,16.90
2018-08-30T01:39:51.274Z,16.90
2018-08-30T01:42:26.056Z,16.90
2018-08-30T01:45:00.550Z,16.90
2018-08-30T01:47:35.316Z,16.90
2018-08-30T01:50:10.000Z,16.90
2018-08-30T01:52:44.490Z,16.80
2018-08-30T01:55:19.174Z,16.80
2018-08-30T01:57:53.798Z,16.80
2018-08-30T02:00:28.750Z,16.80
2018-08-30T02:03:03.383Z,16.80
2018-08-30T02:05:38.139Z,16.80
2018-08-30T02:08:12.887Z,16.80
2018-08-30T02:10:47.794Z,16.90
2018-08-30T02:13:22.315Z,16.80
2018-08-30T02:15:56.763Z,16.90
2018-08-30T02:18:31.434Z,16.90
2018-08-30T02:21:06.239Z,16.90
2018-08-30T02:23:40.785Z,16.90
2018-08-30T02:26:15.768Z,16.70
2018-08-30T02:28:50.387Z,16.70
2018-08-30T02:31:25.281Z,16.60
2018-08-30T02:33:59.786Z,16.60
2018-08-30T02:36:34.303Z,16.70
2018-08-30T02:39:09.658Z,16.60
2018-08-30T02:41:44.343Z,16.50
2018-08-30T02:44:18.979Z,16.50
2018-08-30T02:46:53.515Z,16.50
2018-08-30T02:49:28.089Z,16.40
2018-08-30T02:52:02.803Z,16.40
2018-08-30T02:54:37.523Z,16.40
2018-08-30T02:57:12.068Z,16.40
2018-08-30T02:59:46.587Z,16.40
2018-08-30T03:02:21.634Z,16.40
2018-08-30T03:04:56.167Z,16.40
2018-08-30T03:07:30.932Z,16.50
2018-08-30T03:10:05.478Z,16.50
2018-08-30T03:12:40.155Z,16.50
2018-08-30T03:15:15.634Z,16.50
2018-08-30T03:17:50.230Z,16.50
2018-08-30T03:20:24.756Z,16.50
2018-08-30T03:22:59.434Z,16.40
2018-08-30T03:25:34.107Z,16.40
2018-08-30T03:28:08.782Z,16.40
2018-08-30T03:30:43.574Z,16.30
2018-08-30T03:33:18.052Z,16.50
2018-08-30T03:35:52.762Z,16.50
2018-08-30T03:38:27.421Z,16.50
2018-08-30T03:41:01.995Z,16.50
2018-08-30T03:43:36.632Z,16.50
2018-08-30T03:46:05.726Z,16.50
2018-08-30T03:48:34.754Z,16.60
2018-08-30T03:51:03.889Z,16.60
2018-08-30T03:53:32.967Z,16.40
2018-08-30T03:56:01.996Z,16.40
2018-08-30T03:58:31.021Z,16.30
2018-08-30T04:01:00.026Z,16.20
2018-08-30T04:03:29.052Z,16.10
2018-08-30T04:05:58.420Z,16.20
2018-08-30T04:08:27.633Z,16.20
2018-08-30T04:10:56.659Z,16.30
2018-08-30T04:13:25.738Z,16.30
2018-08-30T04:15:54.759Z,16.20
2018-08-30T04:18:23.794Z,16.20
2018-08-30T04:20:52.779Z,16.10
2018-08-30T04:23:21.778Z,16.10
2018-08-30T04:25:50.823Z,16.10
2018-08-30T04:28:19.852Z,16.20
2018-08-30T04:30:48.895Z,16.20
2018-08-30T04:33:17.892Z,16.10
2018-08-30T04:35:47.164Z,16.20
2018-08-30T04:38:16.170Z,16.10
2018-08-30T04:40:45.204Z,16.10
2018-08-30T04:43:14.421Z,16.10
2018-08-30T04:45:43.439Z,16.10
2018-08-30T04:48:12.435Z,16.10
2018-08-30T04:50:41.532Z,16.10
2018-08-30T04:53:10.646Z,16.10
2018-08-30T04:55:39.647Z,16.10
2018-08-30T04:58:08.643Z,16.00
2018-08-30T05:00:37.686Z,15.90
2018-08-30T05:03:06.719Z,15.90
2018-08-30T05:05:35.715Z,15.80
2018-08-30T05:08:04.802Z,15.80
2018-08-30T05:10:33.834Z,15.80
2018-08-30T05:13:02.869Z,15.90
2018-08-30T05:15:32.023Z,15.90
2018-08-30T05:18:01.139Z,16.00
2018-08-30T05:20:30.204Z,15.90
2018-08-30T05:22:59.239Z,15.90
2018-08-30T05:25:28.211Z,15.90
2018-08-30T05:27:57.534Z,16.00
2018-08-30T05:30:26.538Z,16.00
2018-08-30T05:32:55.555Z,16.00
2018-08-30T05:35:24.582Z,16.00
2018-08-30T05:37:53.616Z,15.90
2018-08-30T05:40:22.648Z,16.00
2018-08-30T05:42:51.670Z,16.00
2018-08-30T05:45:20.666Z,16.00
2018-08-30T05:47:49.835Z,16.00
2018-08-30T05:50:18.842Z,16.00
2018-08-30T05:52:47.895Z,15.90
2018-08-30T05:55:16.978Z,15.90
2018-08-30T05:57:46.029Z,15.70
2018-08-30T06:00:15.120Z,15.60
2018-08-30T06:02:44.137Z,15.60
2018-08-30T06:05:13.154Z,15.50
2018-08-30T06:07:42.217Z,15.40
2018-08-30T06:10:11.250Z,15.40
2018-08-30T06:12:40.275Z,15.50
2018-08-30T06:15:09.384Z,15.40
2018-08-30T06:17:38.394Z,15.40
2018-08-30T06:20:07.452Z,15.50
2018-08-30T06:22:36.476Z,15.40
2018-08-30T06:25:05.706Z,15.40
2018-08-30T06:27:34.754Z,15.40
2018-08-30T06:30:03.852Z,15.50
2018-08-30T06:32:32.955Z,15.50
2018-08-30T06:35:02.057Z,15.40
2018-08-30T06:37:31.211Z,15.40
2018-08-30T06:40:00.199Z,15.30
2018-08-30T06:42:29.205Z,15.30
2018-08-30T06:44:58.234Z,15.30
2018-08-30T06:47:27.239Z,15.30
2018-08-30T06:49:56.235Z,15.50
2018-08-30T06:52:25.287Z,15.50
2018-08-30T06:54:54.284Z,15.40
2018-08-30T06:57:23.297Z,15.40
2018-08-30T06:59:52.343Z,15.20
2018-08-30T07:02:21.397Z,15.30
2018-08-30T07:04:50.454Z,15.40
2018-08-30T07:07:19.520Z,15.50
2018-08-30T07:09:48.622Z,15.50
2018-08-30T07:12:17.578Z,15.50
2018-08-30T07:14:46.659Z,15.50
2018-08-30T07:17:15.735Z,15.60
2018-08-30T07:19:44.728Z,15.40
2018-08-30T07:22:13.782Z,15.50
2018-08-30T07:24:42.815Z,15.30
2018-08-30T07:27:11.846Z,15.30
2018-08-30T07:29:40.947Z,15.30
2018-08-30T07:32:09.947Z,15.30
2018-08-30T07:34:39.049Z,15.30
2018-08-30T07:37:08.085Z,15.50
2018-08-30T07:39:37.167Z,15.50
2018-08-30T07:42:06.417Z,15.50
2018-08-30T07:44:35.482Z,15.60
2018-08-30T07:47:05.157Z,15.80
2018-08-30T07:49:34.170Z,15.80
2018-08-30T07:52:03.196Z,16.00
2018-08-30T07:54:32.304Z,15.90
2018-08-30T07:57:01.294Z,15.80
2018-08-30T07:59:30.366Z,15.80
2018-08-30T08:01:59.352Z,15.80
2018-08-30T08:04:28.407Z,15.80
2018-08-30T08:06:57.443Z,15.90
2018-08-30T08:09:26.420Z,16.10
2018-08-30T08:11:55.532Z,16.20
2018-08-30T08:14:24.518Z,16.30
2018-08-30T08:16:53.587Z,16.40
2018-08-30T08:19:23.553Z,16.60
2018-08-30T08:21:52.663Z,16.60
2018-08-30T08:24:21.723Z,16.70
2018-08-30T08:26:50.714Z,16.90
2018-08-30T08:29:20.054Z,17.20
2018-08-30T08:31:49.102Z,17.60
2018-08-30T08:34:18.116Z,18.00
2018-08-30T08:36:47.195Z,19.40
2018-08-30T08:39:17.091Z,20.20
2018-08-30T08:41:46.101Z,20.80
2018-08-30T08:44:15.450Z,21.40
2018-08-30T08:46:44.491Z,21.10
2018-08-30T08:49:13.492Z,20.30
2018-08-30T08:51:42.948Z,19.50
2018-08-30T08:54:11.939Z,20.80
2018-08-30T08:56:40.975Z,21.70
2018-08-30T08:59:10.225Z,23.10
2018-08-30T09:01:39.255Z,24.30
2018-08-30T09:04:08.244Z,24.70
2018-08-30T09:06:37.250Z,25.70
2018-08-30T09:09:08.554Z,26.70
2018-08-30T09:11:37.575Z,26.40
2018-08-30T09:14:06.570Z,25.70
2018-08-30T09:16:35.689Z,25.00
2018-08-30T09:19:05.191Z,24.40
2018-08-30T09:21:34.392Z,23.90
2018-08-30T09:24:03.436Z,22.80
2018-08-30T09:26:32.434Z,23.90
2018-08-30T09:29:01.463Z,24.50
2018-08-30T09:31:30.523Z,24.40
2018-08-30T09:33:59.611Z,24.30
2018-08-30T09:36:28.579Z,25.80
2018-08-30T09:38:57.635Z,24.50
2018-08-30T09:41:26.654Z,24.20
2018-08-30T09:43:55.726Z,23.70
2018-08-30T09:46:24.884Z,23.00
2018-08-30T09:48:53.909Z,23.00
2018-08-30T09:51:22.931Z,22.50
2018-08-30T09:53:52.012Z,22.90
2018-08-30T09:56:21.099Z,23.50
2018-08-30T09:58:50.090Z,22.90
2018-08-30T10:01:24.398Z,24.70
2018-08-30T10:03:53.456Z,24.30
2018-08-30T10:06:22.658Z,24.00
2018-08-30T10:08:51.664Z,24.50
2018-08-30T10:11:20.660Z,25.30
2018-08-30T10:13:49.706Z,25.00
2018-08-30T10:16:18.779Z,24.90
2018-08-30T10:18:47.824Z,24.80
2018-08-30T10:21:16.927Z,24.70
2018-08-30T10:23:45.999Z,25.40
2018-08-30T10:26:15.025Z,26.90
2018-08-30T10:28:44.077Z,26.60
2018-08-30T10:31:13.111Z,27.00
2018-08-30T10:33:42.195Z,27.00
2018-08-30T10:36:12.171Z,27.20
2018-08-30T10:38:41.307Z,26.60
2018-08-30T10:41:10.376Z,26.80
2018-08-30T10:43:39.399Z,25.90
2018-08-30T10:46:08.474Z,25.20
2018-08-30T10:48:37.555Z,24.20
2018-08-30T10:51:06.606Z,23.20
2018-08-30T10:53:35.971Z,22.40
2018-08-30T10:56:05.404Z,22.00
2018-08-30T10:58:34.439Z,22.00
2018-08-30T11:01:03.447Z,21.60
2018-08-30T11:03:32.585Z,21.30
2018-08-30T11:06:01.655Z,21.40
2018-08-30T11:08:30.694Z,21.40
2018-08-30T11:10:59.762Z,21.10
2018-08-30T11:13:28.892Z,21.20
2018-08-30T11:15:57.995Z,21.10
2018-08-30T11:18:26.991Z,21.30
2018-08-30T11:20:56.453Z,21.10
2018-08-30T11:23:25.482Z,21.20
2018-08-30T11:25:54.516Z,21.70
2018-08-30T11:28:23.599Z,22.80
2018-08-30T11:30:52.615Z,23.30
2018-08-30T11:33:22.080Z,23.70
2018-08-30T11:35:51.140Z,24.30
2018-08-30T11:38:20.163Z,24.70
2018-08-30T11:40:49.543Z,24.60
2018-08-30T11:43:18.654Z,24.60
2018-08-30T11:45:47.658Z,23.50
2018-08-30T11:48:16.790Z,22.40
2018-08-30T11:50:45.830Z,22.50
2018-08-30T11:53:14.919Z,23.00
2018-08-30T11:55:44.021Z,23.30
2018-08-30T11:58:13.065Z,23.20
2018-08-30T12:00:42.647Z,23.00
2018-08-30T12:03:11.738Z,23.70
2018-08-30T12:05:41.110Z,24.30
2018-08-30T12:08:10.504Z,24.10
2018-08-30T12:10:40.751Z,23.90
2018-08-30T12:13:09.821Z,24.00
2018-08-30T12:15:39.352Z,24.70
2018-08-30T12:18:10.032Z,24.80
2018-08-30T12:20:39.140Z,25.00
2018-08-30T12:23:08.151Z,25.30
2018-08-30T12:25:37.207Z,25.90
2018-08-30T12:28:06.272Z,25.30
2018-08-30T12:30:35.372Z,26.00
2018-08-30T12:33:04.450Z,25.50
2018-08-30T12:35:33.511Z,26.60
2018-08-30T12:38:02.857Z,27.10
2018-08-30T12:40:31.946Z,26.40
2018-08-30T12:43:01.144Z,26.10
2018-08-30T12:45:30.548Z,26.00
2018-08-30T12:47:59.691Z,25.60
2018-08-30T12:50:29.036Z,25.10
2018-08-30T12:52:58.078Z,24.70
2018-08-30T12:55:27.103Z,24.20
2018-08-30T12:57:56.176Z,23.80
2018-08-30T13:00:25.291Z,23.20
2018-08-30T13:02:54.592Z,23.20
2018-08-30T13:05:23.868Z,22.90
2018-08-30T13:07:52.833Z,22.70
2018-08-30T13:10:22.001Z,22.70
2018-08-30T13:12:51.162Z,22.80
2018-08-30T13:15:20.437Z,23.50
2018-08-30T13:17:49.451Z,23.90
2018-08-30T13:20:18.479Z,24.60
2018-08-30T13:22:48.095Z,24.80
2018-08-30T13:25:17.312Z,24.10
2018-08-30T13:27:46.277Z,23.80
2018-08-30T13:30:15.375Z,24.10
2018-08-30T13:32:44.411Z,24.80
2018-08-30T13:35:13.518Z,25.00
2018-08-30T13:37:42.708Z,25.30
2018-08-30T13:40:11.740Z,25.60
2018-08-30T13:42:40.480Z,25.70
2018-08-30T13:45:10.185Z,25.40
2018-08-30T13:47:39.047Z,25.50
2018-08-30T13:50:08.442Z,25.00
2018-08-30T13:52:38.978Z,25.00
2018-08-30T13:55:07.910Z,25.00
2018-08-30T13:57:37.469Z,24.80
2018-08-30T14:00:06.367Z,24.90
2018-08-30T14:02:35.109Z,25.30
2018-08-30T14:05:04.538Z,24.50
2018-08-30T14:07:33.315Z,24.90
2018-08-30T14:10:02.974Z,25.10
2018-08-30T14:12:31.992Z,24.30
2018-08-30T14:15:01.199Z,23.50
2018-08-30T14:17:29.773Z,22.90
2018-08-30T14:19:58.764Z,23.00
2018-08-30T14:22:28.226Z,22.90
2018-08-30T14:24:57.227Z,22.80
2018-08-30T14:27:26.299Z,22.60
2018-08-30T14:29:55.346Z,22.80
2018-08-30T14:32:24.416Z,22.90
2018-08-30T14:34:53.394Z,22.80
2018-08-30T14:37:22.559Z,22.70
2018-08-30T14:39:51.736Z,22.50
2018-08-30T14:42:21.360Z,22.20
2018-08-30T14:44:50.334Z,22.40
2018-08-30T14:47:19.625Z,22.50
2018-08-30T14:49:48.641Z,22.20
2018-08-30T14:52:17.937Z,22.40
2018-08-30T14:54:46.792Z,22.60
2018-08-30T14:57:15.845Z,22.70
2018-08-30T14:59:45.062Z,22.60
2018-08-30T15:02:14.012Z,22.40
2018-08-30T15:04:43.065Z,22.20
2018-08-30T15:07:12.125Z,22.00
2018-08-30T15:09:41.154Z,21.90
2018-08-30T15:12:10.272Z,21.90
2018-08-30T15:14:39.350Z,21.90
2018-08-30T15:17:08.737Z,21.90
2018-08-30T15:19:37.627Z,22.00
2018-08-30T15:22:06.787Z,22.20
2018-08-30T15:24:35.858Z,22.30
2018-08-30T15:27:04.885Z,22.40
2018-08-30T15:29:33.982Z,22.30
2018-08-30T15:32:03.035Z,22.40
2018-08-30T15:34:32.211Z,22.20
2018-08-30T15:37:01.234Z,22.10
2018-08-30T15:39:30.522Z,22.10
2018-08-30T15:41:59.661Z,21.90
2018-08-30T15:44:28.691Z,21.90
2018-08-30T15:46:59.651Z,22.00
2018-08-30T15:49:28.897Z,22.00
2018-08-30T15:51:57.952Z,21.90
2018-08-30T15:54:26.995Z,21.90
2018-08-30T15:56:56.063Z,21.90
2018-08-30T15:59:25.624Z,21.70
2018-08-30T16:01:54.470Z,21.70
2018-08-30T16:04:23.492Z,21.70
2018-08-30T16:06:52.613Z,21.70
2018-08-30T16:09:21.693Z,21.60
2018-08-30T16:11:50.767Z,21.50
2018-08-30T16:14:19.761Z,21.40
2018-08-30T16:16:48.792Z,21.30
2018-08-30T16:19:17.910Z,21.30
2018-08-30T16:21:46.914Z,21.40
2018-08-30T16:24:16.058Z,21.20
2018-08-30T16:26:45.115Z,21.20
2018-08-30T16:29:14.289Z,21.30
2018-08-30T16:31:43.611Z,21.30
2018-08-30T16:34:12.682Z,21.40
2018-08-30T16:36:41.706Z,21.40
2018-08-30T16:39:11.803Z,21.30
2018-08-30T16:41:41.117Z,21.20
2018-08-30T16:44:10.162Z,21.10
2018-08-30T16:46:39.294Z,21.20
2018-08-30T16:49:08.774Z,21.10
2018-08-30T16:51:37.791Z,21.20
2018-08-30T16:54:06.861Z,21.10
2018-08-30T16:56:35.905Z,21.10
2018-08-30T16:59:05.116Z,20.90
2018-08-30T17:01:34.225Z,20.80
2018-08-30T17:04:03.274Z,20.80
2018-08-30T17:06:32.566Z,20.60
2018-08-30T17:09:01.390Z,20.60
2018-08-30T17:11:30.414Z,20.50
2018-08-30T17:13:59.714Z,20.40
2018-08-30T17:16:28.723Z,20.30
2018-08-30T17:19:07.595Z,20.30
2018-08-30T17:21:36.615Z,20.30
2018-08-30T17:24:05.776Z,20.10
2018-08-30T17:26:34.850Z,20.10
2018-08-30T17:29:03.870Z,20.10
2018-08-30T17:31:32.943Z,20.00
2018-08-30T17:34:01.978Z,19.80
2018-08-30T17:36:30.955Z,19.70
2018-08-30T17:38:59.983Z,19.60
2018-08-30T17:41:28.999Z,19.50
2018-08-30T17:43:58.202Z,19.50
2018-08-30T17:46:27.208Z,19.40
2018-08-30T17:48:56.210Z,19.30
2018-08-30T17:51:25.296Z,19.20
2018-08-30T17:53:54.318Z,19.10
2018-08-30T17:56:23.357Z,19.00
2018-08-30T17:58:52.459Z,19.00
2018-08-30T18:01:21.557Z,19.00
2018-08-30T18:03:50.528Z,18.90
2018-08-30T18:06:19.611Z,18.90
2018-08-30T18:08:48.612Z,18.80
2018-08-30T18:11:17.618Z,18.70
2018-08-30T18:13:46.651Z,18.70
2018-08-30T18:16:15.684Z,18.60
2018-08-30T18:18:44.734Z,18.50
2018-08-30T18:21:13.739Z,18.40
2018-08-30T18:23:42.743Z,18.30
2018-08-30T18:26:11.899Z,18.20
2018-08-30T18:28:40.913Z,18.10
2018-08-30T18:31:09.930Z,17.90
2018-08-30T18:33:39.002Z,18.00
2018-08-30T18:36:08.008Z,18.00
2018-08-30T18:38:37.102Z,18.00
2018-08-30T18:41:06.270Z,18.00
2018-08-30T18:43:35.336Z,18.10
2018-08-30T18:46:04.418Z,18.10
2018-08-30T18:48:33.435Z,18.10
2018-08-30T18:51:02.453Z,18.10
2018-08-30T18:53:31.483Z,18.10
2018-08-30T18:56:00.546Z,18.00
2018-08-30T18:58:29.592Z,17.80
2018-08-30T19:00:58.634Z,17.80
2018-08-30T19:03:27.654Z,17.70
2018-08-30T19:05:57.304Z,17.60
2018-08-30T19:08:26.342Z,17.50
2018-08-30T19:10:55.343Z,17.50
2018-08-30T19:13:24.574Z,17.50
2018-08-30T19:15:58.947Z,17.40
2018-08-30T19:18:33.279Z,17.20
2018-08-30T19:21:02.308Z,17.30
2018-08-30T19:23:31.370Z,17.30
2018-08-30T19:26:00.427Z,17.20
2018-08-30T19:28:29.450Z,17.00
2018-08-30T19:30:58.526Z,17.00
2018-08-30T19:33:27.628Z,17.00
2018-08-30T19:36:02.262Z,17.00
2018-08-30T19:38:31.279Z,16.90
2018-08-30T19:41:05.527Z,16.80
2018-08-30T19:43:34.579Z,16.70
2018-08-30T19:46:03.676Z,16.60
2018-08-30T19:48:32.695Z,16.50
2018-08-30T19:51:01.744Z,16.50
2018-08-30T19:53:30.825Z,16.60
2018-08-30T19:55:59.803Z,16.60
2018-08-30T19:58:28.929Z,16.60
2018-08-30T20:00:57.940Z,16.60
2018-08-30T20:03:27.259Z,16.70
2018-08-30T20:05:56.266Z,16.50
2018-08-30T20:08:25.281Z,16.60
2018-08-30T20:10:54.626Z,16.60
2018-08-30T20:13:23.646Z,16.40
2018-08-30T20:15:52.697Z,16.30
2018-08-30T20:18:21.747Z,16.20
2018-08-30T20:20:50.770Z,16.10
2018-08-30T20:23:19.843Z,16.00
2018-08-30T20:25:48.842Z,16.10
2018-08-30T20:28:17.866Z,16.10
2018-08-30T20:30:46.918Z,16.10
2018-08-30T20:33:15.916Z,16.00
2018-08-30T20:35:45.015Z,15.80
2018-08-30T20:38:14.095Z,15.80
2018-08-30T20:40:43.130Z,15.70
2018-08-30T20:43:12.258Z,15.60
2018-08-30T20:45:41.278Z,15.60
2018-08-30T20:48:10.635Z,15.50
2018-08-30T20:50:39.675Z,15.40
2018-08-30T20:53:08.696Z,15.40
2018-08-30T20:55:37.718Z,15.50
2018-08-30T20:58:07.230Z,15.60
2018-08-30T21:00:36.219Z,15.60
2018-08-30T21:03:05.276Z,15.60
2018-08-30T21:05:39.996Z,15.50
2018-08-30T21:08:14.530Z,15.50
2018-08-30T21:10:49.201Z,15.50
2018-08-30T21:13:23.814Z,15.40
2018-08-30T21:15:58.360Z,15.50
2018-08-30T21:18:33.023Z,15.40
2018-08-30T21:21:07.813Z,15.40
2018-08-30T21:23:42.620Z,15.30
2018-08-30T21:26:17.287Z,15.40
2018-08-30T21:28:51.814Z,15.60
2018-08-30T21:31:26.339Z,15.40
2018-08-30T21:34:01.083Z,15.30
2018-08-30T21:36:35.907Z,15.20
2018-08-30T21:39:10.678Z,15.20
2018-08-30T21:41:45.312Z,15.30
2018-08-30T21:44:19.855Z,15.40
2018-08-30T21:46:54.534Z,15.40
2018-08-30T21:49:29.049Z,15.50
2018-08-30T21:52:03.552Z,15.40
2018-08-30T21:54:38.310Z,15.40
2018-08-30T21:57:12.903Z,15.60
2018-08-30T21:59:47.956Z,15.70
2018-08-30T22:02:22.606Z,15.60
2018-08-30T22:04:57.298Z,15.90
2018-08-30T22:07:32.683Z,15.60
2018-08-30T22:10:07.315Z,15.60
2018-08-30T22:12:41.950Z,15.50
2018-08-30T22:15:16.454Z,15.40
2018-08-30T22:17:51.161Z,15.30
2018-08-30T22:20:25.710Z,15.30
2018-08-30T22:23:00.301Z,15.30
2018-08-30T22:25:34.976Z,15.40
2018-08-30T22:28:09.518Z,15.60
2018-08-30T22:30:44.082Z,15.60
2018-08-30T22:33:19.015Z,15.50
2018-08-30T22:35:53.540Z,15.40
2018-08-30T22:38:28.206Z,15.50
2018-08-30T22:41:02.819Z,15.60
2018-08-30T22:43:37.810Z,15.60
2018-08-30T22:46:12.430Z,15.80
2018-08-30T22:48:47.381Z,15.90
2018-08-30T22:51:22.099Z,15.90
2018-08-30T22:53:56.665Z,16.00
2018-08-30T22:56:31.115Z,15.90
2018-08-30T22:59:05.856Z,15.80
2018-08-30T23:01:40.734Z,15.70
2018-08-30T23:04:15.263Z,15.60
2018-08-30T23:06:50.011Z,15.70
2018-08-30T23:09:24.674Z,15.60
2018-08-30T23:11:59.395Z,15.40
2018-08-30T23:14:34.008Z,15.40
2018-08-30T23:17:08.506Z,15.30
2018-08-30T23:19:43.040Z,15.30
2018-08-30T23:22:17.595Z,15.60
2018-08-30T23:24:52.110Z,15.60
2018-08-30T23:27:26.827Z,15.70
2018-08-30T23:30:01.303Z,15.50
2018-08-30T23:32:35.947Z,15.40
2018-08-30T23:35:10.587Z,15.20
2018-08-30T23:37:45.148Z,15.10
2018-08-30T23:40:19.606Z,15.00
2018-08-30T23:42:54.107Z,15.00
2018-08-30T23:45:28.747Z,15.00
2018-08-30T23:48:03.311Z,15.10
2018-08-30T23:50:37.877Z,15.20
2018-08-30T23:53:12.518Z,15.20
2018-08-30T23:55:47.190Z,15.20
2018-08-30T23:58:33.211Z,15.20
